createdAt,value
2018-11-21T00:00:11.884Z,24.40
2018-11-21T00:02:40.777Z,20.83
2018-11-21T00:05:09.221Z,21.80
2018-11-21T00:07:38.012Z,20.13
2018-11-21T00:10:09.256Z,20.67
2018-11-21T00:12:38.522Z,20.03
2018-11-21T00:15:09.185Z,23.53
2018-11-21T00:17:37.644Z,23.47
2018-11-21T00:20:07.518Z,23.10
2018-11-21T00:22:36.004Z,24.37
2018-11-21T00:25:04.480Z,23.37
2018-11-21T00:27:32.962Z,25.77
2018-11-21T00:30:01.912Z,21.83
2018-11-21T00:32:30.671Z,20.53
2018-11-21T00:34:59.178Z,22.13
2018-11-21T00:37:27.625Z,24.30
2018-11-21T00:39:56.182Z,25.20
2018-11-21T00:42:24.693Z,19.20
2018-11-21T00:44:53.175Z,22.43
2018-11-21T00:47:21.675Z,21.90
2018-11-21T00:49:50.137Z,24.83
2018-11-21T00:52:18.614Z,21.00
2018-11-21T00:54:47.071Z,21.47
2018-11-21T00:57:15.551Z,19.00
2018-11-21T00:59:44.033Z,23.13
2018-11-21T01:02:12.952Z,22.43
2018-11-21T01:04:41.565Z,23.27
2018-11-21T01:07:10.014Z,23.33
2018-11-21T01:09:39.292Z,23.40
2018-11-21T01:12:07.772Z,22.63
2018-11-21T01:14:36.298Z,21.30
2018-11-21T01:17:04.817Z,20.43
2018-11-21T01:19:33.316Z,24.43
2018-11-21T01:22:01.760Z,22.50
2018-11-21T01:24:30.246Z,20.57
2018-11-21T01:26:58.700Z,22.00
2018-11-21T01:29:27.206Z,23.87
2018-11-21T01:31:55.725Z,20.47
2018-11-21T01:34:24.206Z,19.47
2018-11-21T01:36:53.030Z,22.97
2018-11-21T01:39:21.948Z,23.40
2018-11-21T01:41:50.446Z,22.77
2018-11-21T01:44:19.000Z,22.27
2018-11-21T01:46:47.482Z,20.90
2018-11-21T01:49:15.936Z,19.17
2018-11-21T01:51:44.446Z,21.43
2018-11-21T01:54:12.935Z,21.90
2018-11-21T01:56:41.421Z,19.83
2018-11-21T01:59:10.209Z,21.50
2018-11-21T02:01:38.678Z,20.50
2018-11-21T02:04:07.168Z,21.37
2018-11-21T02:06:35.870Z,21.00
2018-11-21T02:09:06.835Z,19.90
2018-11-21T02:11:35.292Z,19.97
2018-11-21T02:14:03.835Z,25.83
2018-11-21T02:16:33.637Z,21.37
2018-11-21T02:19:02.087Z,20.93
2018-11-21T02:21:30.577Z,20.43
2018-11-21T02:23:59.075Z,22.07
2018-11-21T02:26:27.706Z,19.53
2018-11-21T02:28:56.140Z,21.73
2018-11-21T02:31:24.606Z,21.03
2018-11-21T02:33:53.762Z,19.03
2018-11-21T02:36:22.273Z,19.33
2018-11-21T02:38:50.795Z,17.43
2018-11-21T02:41:19.334Z,21.33
2018-11-21T02:43:47.753Z,17.63
2018-11-21T02:46:16.225Z,18.47
2018-11-21T02:48:44.699Z,17.50
2018-11-21T02:51:13.167Z,21.17
2018-11-21T02:53:41.644Z,17.67
2018-11-21T02:56:10.522Z,19.60
2018-11-21T02:58:39.000Z,21.43
2018-11-21T03:01:07.467Z,18.70
2018-11-21T03:03:35.912Z,19.70
2018-11-21T03:06:05.236Z,17.73
2018-11-21T03:08:33.687Z,18.63
2018-11-21T03:11:02.162Z,18.80
2018-11-21T03:13:30.617Z,14.77
2018-11-21T03:15:59.151Z,18.23
2018-11-21T03:18:27.645Z,15.83
2018-11-21T03:20:58.709Z,15.70
2018-11-21T03:23:27.205Z,15.60
2018-11-21T03:25:55.725Z,15.10
2018-11-21T03:28:24.199Z,15.37
2018-11-21T03:30:52.661Z,16.17
2018-11-21T03:33:21.134Z,15.40
2018-11-21T03:35:49.887Z,15.40
2018-11-21T03:38:18.373Z,15.93
2018-11-21T03:40:46.934Z,14.63
2018-11-21T03:43:15.360Z,14.37
2018-11-21T03:45:43.843Z,15.27
2018-11-21T03:48:12.590Z,17.00
2018-11-21T03:50:41.135Z,14.43
2018-11-21T03:53:09.967Z,15.97
2018-11-21T03:55:38.524Z,14.80
2018-11-21T03:58:07.000Z,15.17
2018-11-21T04:00:35.499Z,13.80
2018-11-21T04:03:03.960Z,15.07
2018-11-21T04:05:32.785Z,15.57
2018-11-21T04:08:01.277Z,17.87
2018-11-21T04:10:29.814Z,15.17
2018-11-21T04:12:58.327Z,16.87
2018-11-21T04:15:26.771Z,15.57
2018-11-21T04:17:55.260Z,12.93
2018-11-21T04:20:23.716Z,15.00
2018-11-21T04:22:52.392Z,13.27
2018-11-21T04:25:22.243Z,15.50
2018-11-21T04:27:51.059Z,16.43
2018-11-21T04:30:19.516Z,13.53
2018-11-21T04:32:47.980Z,16.17
2018-11-21T04:35:16.445Z,14.80
2018-11-21T04:37:44.912Z,16.40
2018-11-21T04:40:13.397Z,15.97
2018-11-21T04:42:41.881Z,16.17
2018-11-21T04:45:11.002Z,14.63
2018-11-21T04:47:45.009Z,16.13
2018-11-21T04:50:14.419Z,14.03
2018-11-21T04:52:42.905Z,17.13
2018-11-21T04:55:11.711Z,14.73
2018-11-21T04:57:40.528Z,15.33
2018-11-21T05:00:10.491Z,15.60
2018-11-21T05:02:39.107Z,13.67
2018-11-21T05:05:09.198Z,13.47
2018-11-21T05:07:37.679Z,13.93
2018-11-21T05:10:07.738Z,13.47
2018-11-21T05:12:36.907Z,15.63
2018-11-21T05:15:06.026Z,14.43
2018-11-21T05:17:34.483Z,14.33
2018-11-21T05:20:02.984Z,13.40
2018-11-21T05:22:31.463Z,13.63
2018-11-21T05:25:00.050Z,13.50
2018-11-21T05:27:28.507Z,12.17
2018-11-21T05:29:56.968Z,11.37
2018-11-21T05:32:25.432Z,13.80
2018-11-21T05:34:53.890Z,13.20
2018-11-21T05:37:22.738Z,12.10
2018-11-21T05:39:52.269Z,12.97
2018-11-21T05:42:21.089Z,14.10
2018-11-21T05:44:49.550Z,11.50
2018-11-21T05:47:18.394Z,11.70
2018-11-21T05:49:47.118Z,12.70
2018-11-21T05:52:16.111Z,13.07
2018-11-21T05:54:45.798Z,15.03
2018-11-21T05:57:14.945Z,12.83
2018-11-21T05:59:43.744Z,13.60
2018-11-21T06:02:12.845Z,12.50
2018-11-21T06:04:41.690Z,13.33
2018-11-21T06:07:10.475Z,10.63
2018-11-21T06:09:40.476Z,12.87
2018-11-21T06:12:08.936Z,13.37
2018-11-21T06:14:37.414Z,12.27
2018-11-21T06:17:06.528Z,12.83
2018-11-21T06:19:35.196Z,11.87
2018-11-21T06:22:03.859Z,12.30
2018-11-21T06:24:32.359Z,12.83
2018-11-21T06:27:02.520Z,11.97
2018-11-21T06:29:31.044Z,15.47
2018-11-21T06:31:59.863Z,12.67
2018-11-21T06:34:32.757Z,12.53
2018-11-21T06:36:59.241Z,11.90
2018-11-21T06:39:27.703Z,11.23
2018-11-21T06:41:58.328Z,14.13
2018-11-21T06:44:26.811Z,13.97
2018-11-21T06:46:55.358Z,13.00
2018-11-21T06:49:23.849Z,12.90
2018-11-21T06:51:52.358Z,12.57
2018-11-21T06:54:20.845Z,13.67
2018-11-21T06:56:49.318Z,13.43
2018-11-21T06:59:17.756Z,11.40
2018-11-21T07:01:46.248Z,14.97
2018-11-21T07:04:14.723Z,13.83
2018-11-21T07:06:43.208Z,14.27
2018-11-21T07:09:12.268Z,14.63
2018-11-21T07:11:40.760Z,12.80
2018-11-21T07:14:09.515Z,14.03
2018-11-21T07:16:38.944Z,15.80
2018-11-21T07:19:07.432Z,15.00
2018-11-21T07:21:35.906Z,14.13
2018-11-21T07:24:04.519Z,12.37
2018-11-21T07:26:33.002Z,13.73
2018-11-21T07:29:01.829Z,13.93
2018-11-21T07:31:30.296Z,14.10
2018-11-21T07:33:58.807Z,13.33
2018-11-21T07:36:27.309Z,13.63
2018-11-21T07:38:57.738Z,12.33
2018-11-21T07:41:26.245Z,12.73
2018-11-21T07:43:54.692Z,13.73
2018-11-21T07:46:25.352Z,12.93
2018-11-21T07:48:53.808Z,13.60
2018-11-21T07:51:22.289Z,14.00
2018-11-21T07:53:50.827Z,12.10
2018-11-21T07:57:10.314Z,12.67
2018-11-21T07:59:38.788Z,12.37
2018-11-21T08:02:15.236Z,12.53
2018-11-21T08:04:56.737Z,12.33
2018-11-21T08:07:44.264Z,12.47
2018-11-21T08:10:40.886Z,14.57
2018-11-21T08:13:31.140Z,12.17
2018-11-21T08:16:37.022Z,11.00
2018-11-21T08:19:31.043Z,10.60
2018-11-21T08:22:14.614Z,11.93
2018-11-21T08:25:11.425Z,12.00
2018-11-21T08:27:57.565Z,10.27
2018-11-21T08:30:26.019Z,10.77
2018-11-21T08:32:54.496Z,11.00
2018-11-21T08:35:22.960Z,12.07
2018-11-21T08:37:51.445Z,11.53
2018-11-21T08:40:19.899Z,11.03
2018-11-21T08:42:48.698Z,10.00
2018-11-21T08:45:17.783Z,14.00
2018-11-21T08:47:46.259Z,12.53
2018-11-21T08:50:16.342Z,12.70
2018-11-21T08:52:44.798Z,10.00
2018-11-21T08:55:13.572Z,11.43
2018-11-21T08:57:42.018Z,12.07
2018-11-21T09:00:12.212Z,12.50
2018-11-21T09:02:40.870Z,11.40
2018-11-21T09:05:10.839Z,10.83
2018-11-21T09:07:40.478Z,10.93
2018-11-21T09:10:12.013Z,10.60
2018-11-21T09:12:40.939Z,13.53
2018-11-21T09:15:16.856Z,11.90
2018-11-21T09:17:45.884Z,11.23
2018-11-21T09:20:14.474Z,13.40
2018-11-21T09:22:43.329Z,10.50
2018-11-21T09:25:12.660Z,11.97
2018-11-21T09:27:41.851Z,12.43
2018-11-21T09:30:12.238Z,14.40
2018-11-21T09:32:41.101Z,13.03
2018-11-21T09:35:11.453Z,11.67
2018-11-21T09:37:39.922Z,13.10
2018-11-21T09:40:10.385Z,12.30
2018-11-21T09:42:39.638Z,11.00
2018-11-21T09:45:09.855Z,12.53
2018-11-21T09:47:38.313Z,12.70
2018-11-21T09:50:10.087Z,14.33
2018-11-21T09:52:38.736Z,11.50
2018-11-21T09:55:07.328Z,10.77
2018-11-21T09:57:35.789Z,13.57
2018-11-21T10:00:22.826Z,12.70
2018-11-21T10:03:21.724Z,14.10
2018-11-21T10:06:01.944Z,15.13
2018-11-21T10:08:35.931Z,12.87
2018-11-21T10:11:04.438Z,12.17
2018-11-21T10:13:33.293Z,13.23
2018-11-21T10:16:04.468Z,13.37
2018-11-21T10:18:33.330Z,14.17
2018-11-21T10:21:02.252Z,14.90
2018-11-21T10:23:30.743Z,13.83
2018-11-21T10:25:59.256Z,14.33
2018-11-21T10:28:27.769Z,14.07
2018-11-21T10:30:56.381Z,10.67
2018-11-21T10:33:24.862Z,12.37
2018-11-21T10:35:53.570Z,11.63
2018-11-21T10:38:22.169Z,13.00
2018-11-21T10:40:51.000Z,14.67
2018-11-21T10:43:19.435Z,13.17
2018-11-21T10:45:47.913Z,14.30
2018-11-21T10:48:16.745Z,11.87
2018-11-21T10:50:45.231Z,12.90
2018-11-21T10:53:13.885Z,12.73
2018-11-21T10:55:42.400Z,13.87
2018-11-21T10:58:10.877Z,13.27
2018-11-21T11:00:58.709Z,12.53
2018-11-21T11:03:29.314Z,12.27
2018-11-21T11:06:22.763Z,10.93
2018-11-21T11:09:11.118Z,15.67
2018-11-21T11:11:59.950Z,12.17
2018-11-21T11:14:46.243Z,14.97
2018-11-21T11:17:33.789Z,14.03
2018-11-21T11:20:26.996Z,14.83
2018-11-21T11:23:08.545Z,13.90
2018-11-21T11:26:01.986Z,12.90
2018-11-21T11:29:04.536Z,12.67
2018-11-21T11:31:54.859Z,12.87
2018-11-21T11:34:40.822Z,12.87
2018-11-21T11:37:26.806Z,11.03
2018-11-21T11:40:13.137Z,10.83
2018-11-21T11:42:59.275Z,9.20
2018-11-21T11:45:55.676Z,12.83
2018-11-21T11:48:46.427Z,11.90
2018-11-21T11:51:42.989Z,9.47
2018-11-21T11:54:27.517Z,12.30
2018-11-21T11:57:30.095Z,10.63
2018-11-21T12:00:20.242Z,10.50
2018-11-21T12:03:05.386Z,10.03
2018-11-21T12:05:52.933Z,10.20
2018-11-21T12:08:35.317Z,12.47
2018-11-21T12:11:24.177Z,13.40
2018-11-21T12:14:18.482Z,10.67
2018-11-21T12:17:05.993Z,12.33
2018-11-21T12:20:01.987Z,9.07
2018-11-21T12:23:05.580Z,12.93
2018-11-21T12:26:10.362Z,11.03
2018-11-21T12:28:51.962Z,11.60
2018-11-21T12:31:29.874Z,12.13
2018-11-21T12:34:20.133Z,12.40
2018-11-21T12:37:26.400Z,12.70
2018-11-21T12:40:12.599Z,12.87
2018-11-21T12:43:15.100Z,12.93
2018-11-21T12:46:01.370Z,13.07
2018-11-21T12:48:39.858Z,12.07
2018-11-21T12:51:39.552Z,13.37
2018-11-21T12:54:33.914Z,14.97
2018-11-21T12:57:20.211Z,12.73
2018-11-21T13:00:01.128Z,12.50
2018-11-21T13:02:54.526Z,13.20
2018-11-21T13:05:40.955Z,14.40
2018-11-21T13:08:36.729Z,12.77
2018-11-21T13:11:30.145Z,15.00
